< Typhoon 197502 1975 Season Typhoon 197504 >
Typhoon 197503 (NINA)
General InformationTrack Information on Google Maps || Disaster Info.ResourceGoogle EarthGE AnimationAtom FeedGeoJSON
Detalied Best Track (Time Zone = UTC)
Year Month Day Hour Lat. Long. Pressure (hPa) Wind (kt) Class Image
1975 7 30 12 18.0 136.0 1002 0 2 No
1975 7 30 18 18.0 135.0 1002 0 2 No
1975 7 31 00 18.0 134.0 1000 0 2 No
1975 7 31 06 18.0 133.5 994 0 2 No
1975 7 31 12 18.0 133.0 994 0 9 No
1975 7 31 18 18.0 132.7 992 0 9 No
1975 8 1 00 18.4 132.3 980 0 9 No
1975 8 1 06 19.3 131.8 975 0 9 No
1975 8 1 12 20.0 130.7 970 0 9 No
1975 8 1 18 21.2 129.5 960 0 9 No
1975 8 2 00 22.1 128.2 935 0 9 No
1975 8 2 06 22.5 126.6 905 0 9 No
1975 8 2 12 23.0 125.1 905 0 9 No
1975 8 2 18 23.3 123.6 900 0 9 No
1975 8 3 00 23.8 122.5 920 0 9 No
1975 8 3 06 24.3 121.2 970 0 9 No
1975 8 3 12 24.5 119.8 970 0 9 No
1975 8 3 18 25.0 118.4 980 0 9 No
1975 8 4 00 25.0 117.5 986 0 2 No
1975 8 4 06 26.0 116.5 992 0 2 No
1975 8 4 12 26.7 115.4 992 0 2 No
1975 8 4 18 27.6 114.0 992 0 2 No
1975 8 5 00 28.0 113.0 992 0 2 No
1975 8 5 06 29.0 112.3 996 0 2 No
1975 8 5 12 29.5 112.0 996 0 2 No
1975 8 5 18 30.0 112.0 998 0 2 No
1975 8 6 00 31.0 112.0 998 0 2 No
Japan Meteorological Agency Best Track Data | Correction Date : 1990-10-17
< Typhoon 197502 1975 Season Typhoon 197504 >

Help